Map

Track Data

SID SEASON NUMBER BASIN SUBBASIN NAME ISO_TIME NATURE LAT LON WMO_WIND WMO_PRES WMO_AGENCY TRACK_TYPE DIST2LAND LANDFALL IFLAG USA_AGENCY USA_ATCF_ID USA_LAT USA_LON USA_RECORD USA_STATUS USA_WIND USA_PRES USA_SSHS USA_R34_NE USA_R34_SE USA_R34_SW USA_R34_NW USA_R50_NE USA_R50_SE USA_R50_SW USA_R50_NW USA_R64_NE USA_R64_SE USA_R64_SW USA_R64_NW USA_POCI USA_ROCI USA_RMW USA_EYE TOKYO_LAT TOKYO_LON TOKYO_GRADE TOKYO_WIND TOKYO_PRES TOKYO_R50_DIR TOKYO_R50_LONG TOKYO_R50_SHORT TOKYO_R30_DIR TOKYO_R30_LONG TOKYO_R30_SHORT TOKYO_LAND CMA_LAT CMA_LON CMA_CAT CMA_WIND CMA_PRES HKO_LAT HKO_LON HKO_CAT HKO_WIND HKO_PRES NEWDELHI_LAT NEWDELHI_LON NEWDELHI_GRADE NEWDELHI_WIND NEWDELHI_PRES NEWDELHI_CI NEWDELHI_DP NEWDELHI_POCI REUNION_LAT REUNION_LON REUNION_TYPE REUNION_WIND REUNION_PRES REUNION_TNUM REUNION_CI REUNION_RMW REUNION_R34_NE REUNION_R34_SE REUNION_R34_SW REUNION_R34_NW REUNION_R50_NE REUNION_R50_SE REUNION_R50_SW REUNION_R50_NW REUNION_R64_NE REUNION_R64_SE REUNION_R64_SW REUNION_R64_NW BOM_LAT BOM_LON BOM_TYPE BOM_WIND BOM_PRES BOM_TNUM BOM_CI BOM_RMW BOM_R34_NE BOM_R34_SE BOM_R34_SW BOM_R34_NW BOM_R50_NE BOM_R50_SE BOM_R50_SW BOM_R50_NW BOM_R64_NE BOM_R64_SE BOM_R64_SW BOM_R64_NW BOM_ROCI BOM_POCI BOM_EYE BOM_POS_METHOD BOM_PRES_METHOD NADI_LAT NADI_LON NADI_CAT NADI_WIND NADI_PRES WELLINGTON_LAT WELLINGTON_LON WELLINGTON_WIND WELLINGTON_PRES DS824_LAT DS824_LON DS824_STAGE DS824_WIND DS824_PRES TD9636_LAT TD9636_LON TD9636_STAGE TD9636_WIND TD9636_PRES TD9635_LAT TD9635_LON TD9635_WIND TD9635_PRES TD9635_ROCI NEUMANN_LAT NEUMANN_LON NEUMANN_CLASS NEUMANN_WIND NEUMANN_PRES MLC_LAT MLC_LON MLC_CLASS MLC_WIND MLC_PRES USA_GUST BOM_GUST BOM_GUST_PER REUNION_GUST REUNION_GUST_PER USA_SEAHGT USA_SEARAD_NE USA_SEARAD_SE USA_SEARAD_SW USA_SEARAD_NW STORM_SPEED STORM_DIR
1927266N19311 1927 51 NA NA NOT_NAMED 1927-09-23 00:00:00 TS 19.0000 -49.2000 35 hurdat_atl main 1563 1561 O_____________ hurdat_atl AL041927 19.0000 -49.2000 TS 35 0 14 319
1927266N19311 1927 51 NA NA NOT_NAMED 1927-09-23 03:00:00 TS 19.5403 -49.6994 main 1561 1557 P_____________ AL041927 19.5403 -49.6994 TS 37 0 15 319
1927266N19311 1927 51 NA NA NOT_NAMED 1927-09-23 06:00:00 TS 20.1000 -50.2000 40 hurdat_atl main 1563 1562 O_____________ hurdat_atl AL041927 20.1000 -50.2000 TS 40 0 15 321
1927266N19311 1927 51 NA NA NOT_NAMED 1927-09-23 09:00:00 TS 20.6924 -50.7003 main 1570 1539 P_____________ AL041927 20.6924 -50.7003 TS 42 0 15 322
1927266N19311 1927 51 NA NA NOT_NAMED 1927-09-23 12:00:00 TS 21.3000 -51.2000 45 hurdat_atl main 1539 1502 O_____________ hurdat_atl AL041927 21.3000 -51.2000 TS 45 0 15 322
1927266N19311 1927 51 NA NA NOT_NAMED 1927-09-23 15:00:00 TS 21.8998 -51.7004 main 1502 1468 P_____________ AL041927 21.8998 -51.7004 TS 47 0 15 322
1927266N19311 1927 51 NA NA NOT_NAMED 1927-09-23 18:00:00 TS 22.5000 -52.2000 50 hurdat_atl main 1468 1436 O_____________ hurdat_atl AL041927 22.5000 -52.2000 TS 50 0 15 322
1927266N19311 1927 51 NA NA NOT_NAMED 1927-09-23 21:00:00 TS 23.0999 -52.7078 main 1439 1415 P_____________ AL041927 23.0999 -52.7078 TS 52 0 15 323
1927266N19311 1927 51 NA NA NOT_NAMED 1927-09-24 00:00:00 TS 23.7000 -53.2000 55 hurdat_atl main 1415 1400 O_____________ hurdat_atl AL041927 23.7000 -53.2000 TS 55 0 15 324
1927266N19311 1927 51 NA NA NOT_NAMED 1927-09-24 03:00:00 TS 24.3073 -53.6579 main 1396 1386 P_____________ AL041927 24.3073 -53.6579 TS 57 0 15 326
1927266N19311 1927 51 NA NA NOT_NAMED 1927-09-24 06:00:00 TS 24.9000 -54.1000 60 hurdat_atl main 1391 1382 O_____________ hurdat_atl AL041927 24.9000 -54.1000 TS 60 0 14 325
1927266N19311 1927 51 NA NA NOT_NAMED 1927-09-24 09:00:00 TS 25.4874 -54.5576 main 1383 1375 P_____________ AL041927 25.4874 -54.5576 TS 62 0 14 324
1927266N19311 1927 51 NA NA NOT_NAMED 1927-09-24 12:00:00 TS 26.0000 -55.0000 65 hurdat_atl main 1381 1376 O_____________ hurdat_atl AL041927 26.0000 -55.0000 HU 65 1 12 320
1927266N19311 1927 51 NA NA NOT_NAMED 1927-09-24 15:00:00 TS 26.4023 -55.4079 main 1376 1367 P_____________ AL041927 26.4023 -55.4079 HU 67 1 10 314
1927266N19311 1927 51 NA NA NOT_NAMED 1927-09-24 18:00:00 TS 26.7000 -55.8000 70 hurdat_atl main 1367 1352 O_____________ hurdat_atl AL041927 26.7000 -55.8000 HU 70 1 9 306
1927266N19311 1927 51 NA NA NOT_NAMED 1927-09-24 21:00:00 TS 26.9224 -56.2078 main 1352 1338 P_____________ AL041927 26.9224 -56.2078 HU 72 1 8 299
1927266N19311 1927 51 NA NA NOT_NAMED 1927-09-25 00:00:00 TS 27.1000 -56.6000 75 hurdat_atl main 1339 1326 O_____________ hurdat_atl AL041927 27.1000 -56.6000 HU 75 1 8 298
1927266N19311 1927 51 NA NA NOT_NAMED 1927-09-25 03:00:00 TS 27.2849 -56.9578 main 1327 1321 P_____________ AL041927 27.2849 -56.9578 HU 77 1 7 303
1927266N19311 1927 51 NA NA NOT_NAMED 1927-09-25 06:00:00 TS 27.5000 -57.3000 80 hurdat_atl main 1324 1317 O_____________ hurdat_atl AL041927 27.5000 -57.3000 HU 80 1 8 309
1927266N19311 1927 51 NA NA NOT_NAMED 1927-09-25 09:00:00 TS 27.7774 -57.6501 main 1324 1324 P_____________ AL041927 27.7774 -57.6501 HU 80 1 9 314
1927266N19311 1927 51 NA NA NOT_NAMED 1927-09-25 12:00:00 TS 28.1000 -58.0000 80 hurdat_atl main 1332 1329 O_____________ hurdat_atl AL041927 28.1000 -58.0000 HU 80 1 9 316
1927266N19311 1927 51 NA NA NOT_NAMED 1927-09-25 15:00:00 TS 28.4274 -58.3503 main 1336 1336 P_____________ AL041927 28.4274 -58.3503 HU 82 1 9 319
1927266N19311 1927 51 NA NA NOT_NAMED 1927-09-25 18:00:00 TS 28.8000 -58.7000 85 hurdat_atl main 1357 1357 O_____________ hurdat_atl AL041927 28.8000 -58.7000 HU 85 2 10 322
1927266N19311 1927 51 NA NA NOT_NAMED 1927-09-25 21:00:00 TS 29.2199 -59.0503 main 1375 1375 P_____________ AL041927 29.2199 -59.0503 HU 85 2 11 326
1927266N19311 1927 51 NA NA NOT_NAMED 1927-09-26 00:00:00 TS 29.7000 -59.4000 85 hurdat_atl main 1410 1410 O_____________ hurdat_atl AL041927 29.7000 -59.4000 HU 85 2 12 329
1927266N19311 1927 51 NA NA NOT_NAMED 1927-09-26 03:00:00 TS 30.2274 -59.7503 main 1442 1442 P_____________ AL041927 30.2274 -59.7503 HU 87 2 13 331
1927266N19311 1927 51 NA NA NOT_NAMED 1927-09-26 06:00:00 TS 30.8000 -60.1000 90 967 hurdat_atl main 1486 1414 O_____________ hurdat_atl AL041927 30.8000 -60.1000 HU 90 967 2 13 332
1927266N19311 1927 51 NA NA NOT_NAMED 1927-09-26 09:00:00 TS 31.3850 -60.4651 main 1411 1339 P_____________ AL041927 31.3850 -60.4651 HU 92 2 13 334
1927266N19311 1927 51 NA NA NOT_NAMED 1927-09-26 12:00:00 TS 32.0000 -60.8000 95 hurdat_atl main 1339 1267 O_____________ hurdat_atl AL041927 32.0000 -60.8000 HU 95 2 14 337
1927266N19311 1927 51 NA NA NOT_NAMED 1927-09-26 15:00:00 TS 32.6424 -61.0876 main 1267 1187 P_____________ AL041927 32.6424 -61.0876 HU 95 2 14 342
1927266N19311 1927 51 NA NA NOT_NAMED 1927-09-26 18:00:00 TS 33.3000 -61.3000 95 hurdat_atl main 1187 1117 O_____________ hurdat_atl AL041927 33.3000 -61.3000 HU 95 2 14 346
1927266N19311 1927 51 NA NA NOT_NAMED 1927-09-26 21:00:00 TS 33.9573 -61.4818 main 1107 1043 P_____________ AL041927 33.9573 -61.4818 HU 92 2 13 353
1927266N19311 1927 51 NA NA NOT_NAMED 1927-09-27 00:00:00 TS 34.6000 -61.5000 90 hurdat_atl main 1043 985 O_____________ hurdat_atl AL041927 34.6000 -61.5000 HU 90 2 13 6
1927266N19311 1927 51 NA NA NOT_NAMED 1927-09-27 03:00:00 TS 35.2071 -61.3122 main 985 935 P_____________ AL041927 35.2071 -61.3122 HU 87 2 13 22
1927266N19311 1927 51 NA NA NOT_NAMED 1927-09-27 06:00:00 TS 35.8000 -60.9000 85 hurdat_atl main 935 896 O_____________ hurdat_atl AL041927 35.8000 -60.9000 HU 85 2 15 35
1927266N19311 1927 51 NA NA NOT_NAMED 1927-09-27 09:00:00 TS 36.4085 -60.2589 main 896 868 P_____________ AL041927 36.4085 -60.2589 HU 82 1 16 41
1927266N19311 1927 51 NA NA NOT_NAMED 1927-09-27 12:00:00 TS 37.0000 -59.6000 80 hurdat_atl main 868 837 O_____________ hurdat_atl AL041927 37.0000 -59.6000 HU 80 1 14 36
1927266N19311 1927 51 NA NA NOT_NAMED 1927-09-27 15:00:00 TS 37.5793 -59.2110 main 833 802 P_____________ AL041927 37.5793 -59.2110 HU 80 1 12 27
1927266N19311 1927 51 NA NA NOT_NAMED 1927-09-27 18:00:00 TS 38.1000 -58.9000 80 hurdat_atl main 802 771 O_____________ hurdat_atl AL041927 38.1000 -58.9000 HU 80 1 11 30
1927266N19311 1927 51 NA NA NOT_NAMED 1927-09-27 21:00:00 TS 38.5299 -58.5070 main 774 742 P_____________ AL041927 38.5299 -58.5070 HU 80 1 10 38
1927266N19311 1927 51 NA NA NOT_NAMED 1927-09-28 00:00:00 TS 38.9000 -58.1000 80 hurdat_atl main 742 720 O_____________ hurdat_atl AL041927 38.9000 -58.1000 HU 80 1 10 41
1927266N19311 1927 51 NA NA NOT_NAMED 1927-09-28 03:00:00 TS 39.2574 -57.6995 main 712 695 P_____________ AL041927 39.2574 -57.6995 HU 77 1 9 41
1927266N19311 1927 51 NA NA NOT_NAMED 1927-09-28 06:00:00 ET 39.6000 -57.3000 75 hurdat_atl main 695 677 O_____________ hurdat_atl AL041927 39.6000 -57.3000 EX 75 -4 9 41
1927266N19311 1927 51 NA NA NOT_NAMED 1927-09-28 09:00:00 ET 39.9498 -56.9070 main 681 660 P_____________ AL041927 39.9498 -56.9070 EX 75 -4 9 41
1927266N19311 1927 51 NA NA NOT_NAMED 1927-09-28 12:00:00 ET 40.3000 -56.5000 75 hurdat_atl main 660 647 O_____________ hurdat_atl AL041927 40.3000 -56.5000 EX 75 -4 10 42
1927266N19311 1927 51 NA NA NOT_NAMED 1927-09-28 15:00:00 ET 40.6648 -56.0649 main 643 636 P_____________ AL041927 40.6648 -56.0649 EX 75 -4 10 44
1927266N19311 1927 51 NA NA NOT_NAMED 1927-09-28 18:00:00 ET 41.0000 -55.6000 75 hurdat_atl main 641 601 O_____________ hurdat_atl AL041927 41.0000 -55.6000 EX 75 -4 9 50
1927266N19311 1927 51 NA NA NOT_NAMED 1927-09-28 21:00:00 ET 41.2648 -55.1143 main 601 572 P_____________ AL041927 41.2648 -55.1143 EX 75 -4 9 56
1927266N19311 1927 51 NA NA NOT_NAMED 1927-09-29 00:00:00 ET 41.5000 -54.6000 75 981 hurdat_atl main 572 546 O_____________ hurdat_atl AL041927 41.5000 -54.6000 EX 75 981 -4 9 59
1927266N19311 1927 51 NA NA NOT_NAMED 1927-09-29 03:00:00 ET 41.7269 -54.0860 main 546 511 P_____________ AL041927 41.7269 -54.0860 EX 75 -4 10 59
1927266N19311 1927 51 NA NA NOT_NAMED 1927-09-29 06:00:00 ET 42.0000 -53.5000 75 hurdat_atl main 511 478 O_____________ hurdat_atl AL041927 42.0000 -53.5000 EX 75 -4 11 56
1927266N19311 1927 51 NA NA NOT_NAMED 1927-09-29 09:00:00 ET 42.3531 -52.8597 main 467 431 P_____________ AL041927 42.3531 -52.8597 EX 75 -4 14 54
1927266N19311 1927 51 NA NA NOT_NAMED 1927-09-29 12:00:00 ET 42.8000 -52.0000 75 hurdat_atl main 432 408 O_____________ hurdat_atl AL041927 42.8000 -52.0000 EX 75 -4 18 57
1927266N19311 1927 51 NA NA NOT_NAMED 1927-09-29 15:00:00 ET 43.3038 -50.8395 main 412 404 P_____________ AL041927 43.3038 -50.8395 EX 72 -4 22 60
1927266N19311 1927 51 NA NA NOT_NAMED 1927-09-29 18:00:00 ET 43.9000 -49.4000 70 hurdat_atl main 421 421 O_____________ hurdat_atl AL041927 43.9000 -49.4000 EX 70 -4 25 60
1927266N19311 1927 51 NA NA NOT_NAMED 1927-09-29 21:00:00 ET 44.5661 -47.8376 main 470 470 P_____________ AL041927 44.5661 -47.8376 EX 70 -4 28 60
1927266N19311 1927 51 NA NA NOT_NAMED 1927-09-30 00:00:00 ET 45.3000 -46.0000 70 hurdat_atl main 559 559 O_____________ hurdat_atl AL041927 45.3000 -46.0000 EX 70 -4 32 62
1927266N19311 1927 51 NA NA NOT_NAMED 1927-09-30 03:00:00 ET 46.0652 -43.8329 main 684 684 P_____________ AL041927 46.0652 -43.8329 EX 70 -4 35 64
1927266N19311 1927 51 NA NA NOT_NAMED 1927-09-30 06:00:00 ET 46.8000 -41.5000 70 hurdat_atl main 838 838 O_____________ hurdat_atl AL041927 46.8000 -41.5000 EX 70 -4 35 66
1927266N19311 1927 51 NA NA NOT_NAMED 1927-09-30 09:00:00 ET 47.4593 -39.1743 main 1000 1000 P_____________ AL041927 47.4593 -39.1743 EX 70 -4 33 68
1927266N19311 1927 51 NA NA NOT_NAMED 1927-09-30 12:00:00 ET 48.0000 -37.0000 70 hurdat_atl main 1160 1160 O_____________ hurdat_atl AL041927 48.0000 -37.0000 EX 70 -4 29 71
1927266N19311 1927 51 NA NA NOT_NAMED 1927-09-30 15:00:00 ET 48.4213 -35.0968 main 1298 1298 P_____________ AL041927 48.4213 -35.0968 EX 67 -4 24 73
1927266N19311 1927 51 NA NA NOT_NAMED 1927-09-30 18:00:00 ET 48.7000 -33.5000 65 hurdat_atl main 1403 1403 O_____________ hurdat_atl AL041927 48.7000 -33.5000 EX 65 -4 20 78
1927266N19311 1927 51 NA NA NOT_NAMED 1927-09-30 21:00:00 ET 48.8433 -32.0742 main 1434 1430 P_____________ AL041927 48.8433 -32.0742 EX 62 -4 17 83
1927266N19311 1927 51 NA NA NOT_NAMED 1927-10-01 00:00:00 ET 48.9000 -31.0000 60 hurdat_atl main 1459 1429 O_____________ hurdat_atl AL041927 48.9000 -31.0000 EX 60 -4 12 84
1927266N19311 1927 51 NA NA NOT_NAMED 1927-10-01 03:00:00 ET 48.9630 -30.2720 main 1429 1395 P_____________ AL041927 48.9630 -30.2720 EX 57 -4 8 83
1927266N19311 1927 51 NA NA NOT_NAMED 1927-10-01 06:00:00 ET 49.0000 -29.8000 55 hurdat_atl main 1395 1368 O_____________ hurdat_atl AL041927 49.0000 -29.8000 EX 55 -4 6 86
1927266N19311 1927 51 NA NA NOT_NAMED 1927-10-01 09:00:00 ET 49.0072 -29.3473 main 1361 1341 P_____________ AL041927 49.0072 -29.3473 EX 52 -4 5 90
1927266N19311 1927 51 NA NA NOT_NAMED 1927-10-01 12:00:00 ET 49.0000 -29.0000 50 hurdat_atl main 1341 1321 O_____________ hurdat_atl AL041927 49.0000 -29.0000 EX 50 -4 4 91
1927266N19311 1927 51 NA NA NOT_NAMED 1927-10-01 15:00:00 ET 48.9976 -28.7301 main 1321 1307 P_____________ AL041927 48.9976 -28.7301 EX 45 -4 3 90
1927266N19311 1927 51 NA NA NOT_NAMED 1927-10-01 18:00:00 ET 49.0000 -28.5000 40 hurdat_atl main 1307 O_____________ hurdat_atl AL041927 49.0000 -28.5000 EX 40 -4 3 89

About IBTrACS Database

This database is a web-friendly format of International Best Track Archive for Climate Stewardship (IBTrACS), a global best track data archive curated by NOAA dating back to 1842.

Updated: 2021-10-08